Time;durP1;ratioP1;P1;durP2;ratioP2;P2;SDS_P1;SDS_P2;PMS_P1;PMS_P2;Temp;Humidity;BMP_temperature;BMP_pressure;BME280_temperature;BME280_humidity;BME280_pressure;Samples;Min_cycle;Max_cycle;Signal;HPM_P1;HPM_P2
2023/10/23 00:00:54;;;;;;;5.07;3.90;;;;;;;7.38;100.00;97963.78;5116711;28;20229;-81
2023/10/23 00:03:21;;;;;;;5.93;4.00;;;;;;;7.36;100.00;97963.88;5115969;28;20215;-81
2023/10/23 00:05:48;;;;;;;6.70;3.97;;;;;;;7.33;100.00;97950.06;5116789;28;20205;-81
2023/10/23 00:08:14;;;;;;;5.63;4.20;;;;;;;7.32;100.00;97958.88;5116890;28;20560;-81
2023/10/23 00:10:42;;;;;;;5.37;3.97;;;;;;;7.30;100.00;97952.88;5116012;28;20212;-81
2023/10/23 00:13:09;;;;;;;7.37;4.43;;;;;;;7.27;100.00;97955.69;5115780;28;20209;-81
2023/10/23 00:15:35;;;;;;;5.00;4.07;;;;;;;7.15;100.00;97948.50;5115647;28;20744;-81
2023/10/23 00:18:01;;;;;;;7.17;4.53;;;;;;;7.09;100.00;97955.91;5119653;28;20280;-81
2023/10/23 00:20:29;;;;;;;8.80;4.23;;;;;;;7.13;100.00;97957.41;5119037;28;20219;-81
2023/10/23 00:22:56;;;;;;;5.53;3.60;;;;;;;7.11;100.00;97962.78;5119239;28;20213;-81
2023/10/23 00:25:22;;;;;;;7.67;3.87;;;;;;;7.09;100.00;97963.81;5119257;28;20208;-81
2023/10/23 00:27:49;;;;;;;8.03;4.00;;;;;;;7.07;100.00;97963.88;5119345;28;20215;-81
2023/10/23 00:30:15;;;;;;;5.50;3.87;;;;;;;7.09;100.00;97964.63;5118646;28;20224;-81
2023/10/23 00:32:42;;;;;;;5.67;4.00;;;;;;;7.13;100.00;97975.81;5117298;28;20251;-81
2023/10/23 00:35:08;;;;;;;6.50;4.70;;;;;;;7.14;100.00;97973.09;5117756;28;20214;-81
2023/10/23 00:37:36;;;;;;;4.80;3.73;;;;;;;7.16;100.00;97975.66;5118202;28;20224;-81
2023/10/23 00:40:03;;;;;;;7.73;4.50;;;;;;;7.15;100.00;97972.16;5118187;28;20203;-81
2023/10/23 00:42:31;;;;;;;5.97;4.20;;;;;;;7.18;100.00;97974.63;5117705;28;20237;-81
2023/10/23 00:44:57;;;;;;;5.03;4.00;;;;;;;7.16;100.00;97976.50;5118403;28;20219;-80
2023/10/23 00:47:25;;;;;;;6.00;4.47;;;;;;;7.17;100.00;97982.59;5118250;28;20211;-80
2023/10/23 00:49:51;;;;;;;5.90;4.37;;;;;;;7.17;100.00;97978.19;5118824;28;20585;-80
2023/10/23 00:52:18;;;;;;;7.77;4.47;;;;;;;7.13;100.00;97979.28;5118309;28;20244;-80
2023/10/23 00:54:47;;;;;;;6.73;4.60;;;;;;;7.12;100.00;97968.88;5118372;28;20587;-82
2023/10/23 00:57:14;;;;;;;5.93;4.10;;;;;;;7.12;100.00;97967.09;5118196;28;20234;-80
2023/10/23 00:59:40;;;;;;;9.73;5.20;;;;;;;7.13;100.00;97973.19;5117723;28;20208;-80
2023/10/23 01:02:07;;;;;;;8.13;4.70;;;;;;;7.19;100.00;97973.69;5117735;28;20234;-80
2023/10/23 01:04:33;;;;;;;5.53;4.30;;;;;;;7.15;100.00;97968.72;5118635;28;20204;-82
2023/10/23 01:07:00;;;;;;;7.60;5.10;;;;;;;7.11;100.00;97969.81;5118299;28;20215;-80
2023/10/23 01:09:27;;;;;;;6.77;4.23;;;;;;;7.05;100.00;97971.03;5118364;28;20209;-81
2023/10/23 01:11:54;;;;;;;7.30;5.10;;;;;;;7.04;100.00;97961.44;5117547;28;20228;-81
2023/10/23 01:14:21;;;;;;;8.07;4.60;;;;;;;6.99;100.00;97963.50;5116819;28;20205;-81
2023/10/23 01:16:49;;;;;;;7.70;4.90;;;;;;;7.02;100.00;97955.41;5117479;28;20238;-81
2023/10/23 01:19:15;;;;;;;11.50;5.07;;;;;;;6.99;100.00;97957.38;5118808;28;20223;-80
2023/10/23 01:21:41;;;;;;;7.27;4.73;;;;;;;6.97;100.00;97954.00;5128000;28;20227;-81
2023/10/23 01:24:10;;;;;;;7.70;4.60;;;;;;;6.93;100.00;97952.47;5127852;28;20221;-81
2023/10/23 01:26:37;;;;;;;6.13;4.93;;;;;;;6.91;100.00;97955.19;5126105;28;20208;-81
2023/10/23 01:29:04;;;;;;;6.00;5.23;;;;;;;6.84;100.00;97956.47;5123134;28;20211;-81
2023/10/23 01:31:31;;;;;;;6.47;4.87;;;;;;;6.79;100.00;97950.63;5121576;28;20591;-81
2023/10/23 01:33:57;;;;;;;6.73;5.00;;;;;;;6.73;100.00;97950.16;5121400;28;20231;-81
2023/10/23 01:36:24;;;;;;;9.53;5.33;;;;;;;6.66;100.00;97957.50;5103339;28;20202;-81
2023/10/23 01:38:50;;;;;;;7.40;5.03;;;;;;;6.63;100.00;97957.69;5121569;28;20216;-81
2023/10/23 01:41:16;;;;;;;9.90;5.43;;;;;;;6.61;100.00;97958.72;5120352;28;20228;-81
2023/10/23 01:43:44;;;;;;;6.47;5.07;;;;;;;6.60;100.00;97959.66;5120216;28;20343;-81
2023/10/23 01:46:11;;;;;;;9.43;4.40;;;;;;;6.60;100.00;97960.47;5120146;28;20200;-81
2023/10/23 01:48:38;;;;;;;6.10;4.20;;;;;;;6.50;100.00;97964.56;5120106;28;20647;-81
2023/10/23 01:51:05;;;;;;;4.77;3.67;;;;;;;6.42;100.00;97958.88;5119434;28;20318;-80
2023/10/23 01:53:31;;;;;;;4.43;3.63;;;;;;;6.38;100.00;97960.00;5119270;28;20206;-81
2023/10/23 01:55:57;;;;;;;6.67;4.20;;;;;;;6.29;100.00;97955.25;5119165;28;20589;-81
2023/10/23 01:58:25;;;;;;;3.90;3.13;;;;;;;6.26;100.00;97960.69;5118353;28;20230;-81
2023/10/23 02:00:53;;;;;;;4.13;3.70;;;;;;;6.24;100.00;97959.91;5119243;28;20228;-81
2023/10/23 02:03:19;;;;;;;4.70;3.53;;;;;;;6.22;100.00;97959.13;5118396;28;20224;-81
2023/10/23 02:05:47;;;;;;;5.43;3.97;;;;;;;6.19;100.00;97959.31;5119265;28;20213;-81
2023/10/23 02:08:16;;;;;;;6.63;3.87;;;;;;;6.13;100.00;97959.66;5116462;28;20204;-81
2023/10/23 02:10:43;;;;;;;5.87;4.17;;;;;;;6.11;100.00;97955.41;5116250;28;20205;-81
2023/10/23 02:13:09;;;;;;;6.47;4.37;;;;;;;6.14;100.00;97956.09;5115659;28;20220;-81
2023/10/23 02:15:36;;;;;;;9.50;5.13;;;;;;;6.19;100.00;97951.44;5116370;28;20217;-81
2023/10/23 02:18:04;;;;;;;8.47;5.90;;;;;;;6.23;100.00;97949.50;5115893;28;20233;-81
2023/10/23 02:20:30;;;;;;;9.03;5.60;;;;;;;6.31;100.00;97949.91;5116877;28;20219;-81
2023/10/23 02:22:57;;;;;;;8.87;5.67;;;;;;;6.38;100.00;97956.53;5118345;28;20215;-81
2023/10/23 02:25:23;;;;;;;6.23;5.03;;;;;;;6.39;100.00;97948.56;5117201;28;20487;-81
2023/10/23 02:27:50;;;;;;;8.23;5.90;;;;;;;6.40;100.00;97942.38;5117494;28;20208;-81
2023/10/23 02:30:17;;;;;;;10.23;5.53;;;;;;;6.42;100.00;97940.50;5117139;28;20218;-81
2023/10/23 02:32:43;;;;;;;10.47;5.80;;;;;;;6.40;100.00;97942.38;5116983;28;20266;-80
2023/10/23 02:35:11;;;;;;;9.00;6.13;;;;;;;6.40;100.00;97946.81;5117778;28;20217;-80
2023/10/23 02:37:37;;;;;;;8.97;5.43;;;;;;;6.41;100.00;97941.44;5117255;28;20236;-81
2023/10/23 02:40:05;;;;;;;10.53;5.97;;;;;;;6.42;100.00;97937.88;5116820;28;20575;-81
2023/10/23 02:42:32;;;;;;;10.70;5.77;;;;;;;6.45;100.00;97940.34;5116126;28;20231;-81
2023/10/23 02:44:59;;;;;;;9.00;5.67;;;;;;;6.42;100.00;97948.38;5115563;28;20225;-80
2023/10/23 02:47:25;;;;;;;5.60;4.83;;;;;;;6.38;100.00;97949.50;5114266;28;20211;-80
2023/10/23 02:49:53;;;;;;;6.57;5.03;;;;;;;6.39;100.00;97950.34;5114656;28;20230;-80
2023/10/23 02:52:21;;;;;;;8.47;5.43;;;;;;;6.30;100.00;97956.94;5114625;28;20611;-80
2023/10/23 02:54:50;;;;;;;9.20;6.00;;;;;;;6.29;100.00;97954.41;5114969;28;20215;-80
2023/10/23 02:57:16;;;;;;;7.43;5.33;;;;;;;6.25;100.00;97959.00;5115480;28;20226;-81
2023/10/23 02:59:46;;;;;;;9.23;5.00;;;;;;;6.21;100.00;97965.31;5115248;28;20230;-80
2023/10/23 03:02:13;;;;;;;8.40;4.80;;;;;;;6.15;100.00;97964.78;5113992;28;20239;-80
2023/10/23 03:04:39;;;;;;;9.57;5.17;;;;;;;6.07;100.00;97974.88;5115013;28;20233;-80
2023/10/23 03:07:06;;;;;;;7.50;4.73;;;;;;;5.99;100.00;97961.31;5114532;28;20300;-80
2023/10/23 03:09:34;;;;;;;6.80;4.50;;;;;;;5.95;100.00;97959.78;5114924;28;20209;-80
2023/10/23 03:12:00;;;;;;;5.93;4.33;;;;;;;5.90;100.00;97951.31;5114022;28;20230;-80
2023/10/23 03:14:27;;;;;;;6.53;4.17;;;;;;;5.81;100.00;97963.13;5114612;28;20209;-80
2023/10/23 03:16:53;;;;;;;4.40;3.33;;;;;;;5.76;100.00;97962.53;5115174;28;20208;-80
2023/10/23 03:19:22;;;;;;;6.33;3.90;;;;;;;5.73;100.00;97962.66;5115354;28;20201;-80
2023/10/23 03:21:49;;;;;;;6.00;3.87;;;;;;;5.72;100.00;97963.59;5115060;28;20224;-80
2023/10/23 03:24:16;;;;;;;5.57;4.17;;;;;;;5.68;100.00;97967.31;5115061;28;20663;-80
2023/10/23 03:26:44;;;;;;;8.53;4.70;;;;;;;5.67;100.00;97959.53;5115467;28;20213;-80
2023/10/23 03:29:10;;;;;;;7.63;4.70;;;;;;;5.65;100.00;97962.22;5120189;28;20210;-79
2023/10/23 03:31:37;;;;;;;6.30;4.37;;;;;;;5.65;100.00;97964.84;5124575;28;20263;-80
2023/10/23 03:34:03;;;;;;;9.53;4.43;;;;;;;5.66;100.00;97963.06;5123629;28;20206;-80
2023/10/23 03:36:30;;;;;;;7.97;4.87;;;;;;;5.72;100.00;97966.22;5119030;28;20206;-80
2023/10/23 03:38:56;;;;;;;7.20;4.80;;;;;;;5.79;100.00;97959.72;5101258;28;20233;-80
2023/10/23 03:41:25;;;;;;;6.83;4.53;;;;;;;5.82;100.00;97953.50;5118426;28;20232;-80
2023/10/23 03:43:53;;;;;;;6.97;4.80;;;;;;;5.82;100.00;97959.59;5118180;28;20588;-80
2023/10/23 03:46:19;;;;;;;6.23;3.93;;;;;;;5.77;100.00;97956.34;5118168;28;20209;-80
2023/10/23 03:48:46;;;;;;;7.57;4.43;;;;;;;5.68;100.00;97962.06;5117803;28;20209;-80
2023/10/23 03:51:12;;;;;;;7.77;4.60;;;;;;;5.60;100.00;97959.00;5120878;28;20589;-80
2023/10/23 03:53:39;;;;;;;6.57;4.70;;;;;;;5.56;100.00;97952.22;5121746;28;20220;-80
2023/10/23 03:56:06;;;;;;;6.73;5.00;;;;;;;5.50;100.00;97954.31;5103446;28;20213;-80
2023/10/23 03:58:32;;;;;;;6.87;4.60;;;;;;;5.47;100.00;97950.09;5121410;28;20233;-80
2023/10/23 04:01:00;;;;;;;9.37;5.50;;;;;;;5.40;100.00;97948.72;5121355;28;20733;-80
2023/10/23 04:03:27;;;;;;;7.83;5.23;;;;;;;5.39;100.00;97954.03;5120745;28;20573;-80
2023/10/23 04:05:53;;;;;;;7.10;5.03;;;;;;;5.40;100.00;97951.34;5121544;28;20210;-80
2023/10/23 04:08:20;;;;;;;8.30;5.00;;;;;;;5.40;100.00;97951.34;5121516;28;20208;-80
2023/10/23 04:10:47;;;;;;;7.43;5.50;;;;;;;5.37;100.00;97950.63;5120683;28;20206;-80
2023/10/23 04:13:14;;;;;;;10.63;5.60;;;;;;;5.38;100.00;97947.91;5119874;28;20210;-80
2023/10/23 04:15:41;;;;;;;7.67;5.60;;;;;;;5.43;100.00;97945.09;5120259;28;20213;-80
2023/10/23 04:18:09;;;;;;;10.90;6.73;;;;;;;5.48;100.00;97948.28;5120217;28;20321;-80
2023/10/23 04:20:35;;;;;;;9.77;6.50;;;;;;;5.53;100.00;97947.16;5120180;28;20292;-80
2023/10/23 04:23:03;;;;;;;9.10;6.53;;;;;;;5.52;100.00;97934.97;5119683;28;20579;-80
2023/10/23 04:25:29;;;;;;;8.90;6.57;;;;;;;5.50;100.00;97936.81;5120158;28;20206;-80
2023/10/23 04:27:56;;;;;;;10.23;6.40;;;;;;;5.51;100.00;97938.50;5120382;28;20206;-80
2023/10/23 04:30:23;;;;;;;7.97;5.70;;;;;;;5.49;100.00;97929.88;5119758;28;20676;-80
2023/10/23 04:32:49;;;;;;;7.43;5.87;;;;;;;5.46;100.00;97935.28;5119243;28;20230;-80
2023/10/23 04:35:17;;;;;;;13.23;6.27;;;;;;;5.41;100.00;97932.06;5119657;28;20218;-80
2023/10/23 04:37:43;;;;;;;8.17;5.80;;;;;;;5.45;100.00;97936.19;5118659;28;20231;-80
2023/10/23 04:40:11;;;;;;;7.97;5.73;;;;;;;5.41;100.00;97929.44;5118969;28;20208;-80
2023/10/23 04:42:45;;;;;;;6.70;4.87;;;;;;;5.31;100.00;97932.63;5117794;28;20233;-80
2023/10/23 04:45:11;;;;;;;6.13;4.17;;;;;;;5.20;100.00;97927.91;5117545;28;20193;-80
2023/10/23 04:47:38;;;;;;;6.20;3.97;;;;;;;5.13;100.00;97923.91;5118019;28;20689;-80
2023/10/23 04:50:05;;;;;;;4.30;3.10;;;;;;;5.09;100.00;97924.16;5118084;28;20208;-80
2023/10/23 04:52:33;;;;;;;5.37;4.10;;;;;;;5.11;100.00;97928.38;5117529;28;20219;-80
2023/10/23 04:55:00;;;;;;;5.50;4.43;;;;;;;5.13;100.00;97916.03;5118030;28;20720;-80
2023/10/23 04:57:26;;;;;;;7.83;5.20;;;;;;;5.16;100.00;97913.28;5118638;28;20217;-80
2023/10/23 04:59:52;;;;;;;7.30;5.03;;;;;;;5.18;100.00;97914.03;5117962;28;20669;-80
2023/10/23 05:02:19;;;;;;;6.83;4.63;;;;;;;5.19;100.00;97914.91;5117281;28;20237;-80
2023/10/23 05:04:45;;;;;;;8.37;5.17;;;;;;;5.19;100.00;97914.91;5118832;28;20213;-80
2023/10/23 05:07:12;;;;;;;10.80;5.10;;;;;;;5.18;100.00;97911.41;5118461;28;20213;-80
2023/10/23 05:09:40;;;;;;;9.47;5.53;;;;;;;5.20;100.00;97912.19;5118616;28;20219;-80
2023/10/23 05:12:07;;;;;;;7.47;5.43;;;;;;;5.21;100.00;97908.66;5117060;28;20231;-80
2023/10/23 05:14:33;;;;;;;7.33;5.00;;;;;;;5.22;100.00;97909.50;5117464;28;20202;-80
2023/10/23 05:17:00;;;;;;;7.73;5.47;;;;;;;5.15;100.00;97897.63;5117823;28;20244;-80
2023/10/23 05:19:26;;;;;;;7.00;4.90;;;;;;;5.11;100.00;97896.09;5118134;28;20726;-80
2023/10/23 05:21:53;;;;;;;8.40;5.10;;;;;;;5.05;100.00;97889.41;5117542;28;20595;-80
2023/10/23 05:24:20;;;;;;;5.83;4.50;;;;;;;4.99;100.00;97894.97;5117022;28;20207;-80
2023/10/23 05:26:48;;;;;;;7.93;5.07;;;;;;;4.93;100.00;97892.66;5117879;28;20202;-80
2023/10/23 05:29:14;;;;;;;9.57;4.90;;;;;;;4.96;100.00;97908.19;5118701;28;20204;-80
2023/10/23 05:31:41;;;;;;;10.47;6.00;;;;;;;5.01;100.00;97911.44;5100674;28;20237;-80
2023/10/23 05:34:07;;;;;;;8.93;6.47;;;;;;;5.05;100.00;97909.50;5117232;28;20217;-80
2023/10/23 05:36:34;;;;;;;9.03;5.63;;;;;;;5.05;100.00;97902.50;5118329;28;20229;-80
2023/10/23 05:39:00;;;;;;;10.57;6.13;;;;;;;5.06;100.00;97909.44;5122951;28;20230;-80
2023/10/23 05:41:27;;;;;;;10.43;6.23;;;;;;;5.05;100.00;97906.88;5126008;28;20239;-80
2023/10/23 05:43:55;;;;;;;8.23;5.33;;;;;;;5.00;100.00;97903.69;5126646;28;20239;-80
2023/10/23 05:46:22;;;;;;;8.77;5.27;;;;;;;4.96;100.00;97910.81;5124159;28;20215;-80
2023/10/23 05:48:49;;;;;;;7.50;5.17;;;;;;;4.95;100.00;97909.13;5122084;28;20209;-80
2023/10/23 05:51:16;;;;;;;7.10;5.10;;;;;;;4.92;100.00;97917.16;5121347;28;20227;-80
2023/10/23 05:53:42;;;;;;;8.37;5.13;;;;;;;4.89;100.00;97919.91;5120359;28;20241;-80
2023/10/23 05:56:09;;;;;;;10.83;6.03;;;;;;;4.89;100.00;97917.28;5120773;28;20577;-80
2023/10/23 05:58:35;;;;;;;7.73;5.83;;;;;;;4.90;100.00;97926.81;5120141;28;20222;-80
2023/10/23 06:01:07;;;;;;;9.00;5.40;;;;;;;4.94;100.00;97936.22;5119677;28;20238;-80
2023/10/23 06:03:34;;;;;;;8.83;6.30;;;;;;;4.97;100.00;97936.09;5119006;28;20212;-80
2023/10/23 06:06:01;;;;;;;12.70;6.73;;;;;;;5.01;100.00;97947.25;5118579;28;20211;-81
2023/10/23 06:08:27;;;;;;;18.63;11.03;;;;;;;5.03;100.00;97941.03;5118941;28;20206;-81
2023/10/23 06:10:54;;;;;;;8.83;6.17;;;;;;;5.10;100.00;97942.41;5118865;28;20709;-81
2023/10/23 06:13:21;;;;;;;9.30;6.13;;;;;;;5.14;100.00;97936.06;5117418;28;20210;-80
2023/10/23 06:15:48;;;;;;;12.77;7.27;;;;;;;5.21;100.00;97929.63;5119125;28;20259;-80
2023/10/23 06:18:16;;;;;;;10.27;6.93;;;;;;;5.22;100.00;97928.69;5118887;28;20704;-80
2023/10/23 06:20:42;;;;;;;11.30;6.47;;;;;;;5.27;100.00;97931.06;5118670;28;20206;-81
2023/10/23 06:23:09;;;;;;;11.17;6.70;;;;;;;5.30;100.00;97928.28;5117337;28;20208;-81
2023/10/23 06:25:35;;;;;;;12.70;6.90;;;;;;;5.32;100.00;97931.69;5117737;28;20226;-80
2023/10/23 06:28:03;;;;;;;10.97;5.93;;;;;;;5.33;100.00;97923.75;5117551;28;20229;-80
2023/10/23 06:30:29;;;;;;;8.13;5.70;;;;;;;5.34;100.00;97925.44;5117344;28;20299;-81
2023/10/23 06:32:56;;;;;;;9.13;5.93;;;;;;;5.35;100.00;97921.88;5117217;28;20206;-81
2023/10/23 06:35:24;;;;;;;11.90;6.20;;;;;;;5.32;100.00;97919.41;5115977;28;20214;-78
2023/10/23 06:37:50;;;;;;;8.47;5.63;;;;;;;5.32;100.00;97923.81;5114955;28;20210;-78
2023/10/23 06:40:17;;;;;;;10.57;6.07;;;;;;;5.38;100.00;97923.50;5115415;28;20321;-80
2023/10/23 06:42:43;;;;;;;8.80;5.43;;;;;;;5.44;100.00;97916.16;5117055;28;20226;-80
2023/10/23 06:45:10;;;;;;;9.17;5.60;;;;;;;5.50;100.00;97915.84;5117113;28;20218;-80
2023/10/23 06:47:37;;;;;;;6.23;4.90;;;;;;;5.55;100.00;97919.06;5116430;28;20237;-79
2023/10/23 06:50:05;;;;;;;6.30;4.70;;;;;;;5.62;100.00;97920.44;5116267;28;20200;-79
2023/10/23 06:52:32;;;;;;;7.43;5.17;;;;;;;5.74;100.00;97925.03;5116894;28;20242;-80
2023/10/23 06:54:59;;;;;;;8.17;4.77;;;;;;;5.86;100.00;97934.06;5116748;28;20210;-80
2023/10/23 06:57:42;;;;;;;9.87;5.60;;;;;;;5.94;100.00;97927.47;5116519;28;20297;-80
2023/10/23 07:00:09;;;;;;;6.10;5.50;;;;;;;5.99;100.00;97925.44;5116983;28;20226;-80
2023/10/23 07:02:36;;;;;;;8.10;5.60;;;;;;;6.04;100.00;97923.41;5116324;28;20225;-80
2023/10/23 07:05:02;;;;;;;7.40;5.40;;;;;;;6.11;100.00;97916.91;5118188;28;20233;-79
2023/10/23 07:07:29;;;;;;;6.67;5.00;;;;;;;6.19;100.00;97901.59;5116644;28;20217;-80
2023/10/23 07:09:59;;;;;;;9.07;5.90;;;;;;;6.29;100.00;97907.19;5116149;28;20204;-80
2023/10/23 07:12:26;;;;;;;7.97;5.27;;;;;;;6.40;100.00;97900.38;5115713;28;20278;-80
2023/10/23 07:14:52;;;;;;;6.87;4.60;;;;;;;6.47;100.00;97893.03;5116947;28;20237;-80
2023/10/23 07:17:19;;;;;;;6.87;4.73;;;;;;;6.53;100.00;97890.88;5116381;28;20216;-79
2023/10/23 07:19:45;;;;;;;7.67;4.87;;;;;;;6.62;100.00;97895.63;5118990;28;20727;-80
2023/10/23 07:22:12;;;;;;;5.33;4.00;;;;;;;6.62;100.00;97903.50;5118686;28;20608;-79
2023/10/23 07:24:38;;;;;;;5.27;3.90;;;;;;;6.64;100.00;97903.38;5119421;28;20220;-80
2023/10/23 07:27:11;;;;;;;5.97;3.97;;;;;;;6.69;100.00;97896.97;5117607;28;20213;-79
2023/10/23 07:29:37;;;;;;;5.93;4.40;;;;;;;6.72;100.00;97888.88;5117738;28;20241;-79
2023/10/23 07:32:05;;;;;;;6.60;4.13;;;;;;;6.72;100.00;97891.50;5116966;28;20596;-79
2023/10/23 07:34:31;;;;;;;6.57;4.37;;;;;;;6.76;100.00;97887.78;5096405;28;20203;-79
2023/10/23 07:36:57;;;;;;;6.23;4.33;;;;;;;6.85;100.00;97886.41;5113850;28;20216;-79
2023/10/23 07:39:24;;;;;;;7.93;4.97;;;;;;;6.95;100.00;97875.28;5114979;28;20238;-78
2023/10/23 07:41:51;;;;;;;7.13;4.63;;;;;;;7.06;100.00;97874.63;5103260;28;20284;-80
2023/10/23 07:44:20;;;;;;;7.77;4.77;;;;;;;7.14;100.00;97873.25;5093519;28;20212;-79
2023/10/23 07:46:46;;;;;;;6.27;5.00;;;;;;;7.25;100.00;97870.81;5093643;28;20593;-79
2023/10/23 07:49:13;;;;;;;6.90;5.10;;;;;;;7.35;100.00;97861.47;5101829;28;20215;-79
2023/10/23 07:51:40;;;;;;;5.90;4.53;;;;;;;7.49;100.00;97864.94;5099162;28;20716;-79
2023/10/23 07:54:06;;;;;;;8.37;5.27;;;;;;;7.57;100.00;97872.34;5098652;28;20220;-80
2023/10/23 07:56:33;;;;;;;6.30;4.90;;;;;;;7.67;100.00;97873.47;5102961;28;20587;-80
2023/10/23 07:58:59;;;;;;;5.93;4.67;;;;;;;7.74;100.00;97866.88;5099879;28;20232;-80
2023/10/23 08:01:27;;;;;;;7.87;5.30;;;;;;;7.82;100.00;97861.97;5099094;28;20252;-80
2023/10/23 08:03:54;;;;;;;5.40;4.23;;;;;;;7.89;100.00;97865.94;5099579;28;20224;-80
2023/10/23 08:06:20;;;;;;;6.33;4.50;;;;;;;7.93;100.00;97870.91;5100927;28;20229;-80
2023/10/23 08:08:47;;;;;;;5.90;5.20;;;;;;;8.02;100.00;97853.69;5101620;28;20205;-81
2023/10/23 08:11:13;;;;;;;5.87;4.83;;;;;;;8.03;100.00;97856.22;5101113;28;20236;-81
2023/10/23 08:13:40;;;;;;;6.20;4.93;;;;;;;8.05;100.00;97858.75;5100810;28;20270;-81
2023/10/23 08:16:07;;;;;;;6.73;4.73;;;;;;;8.07;100.00;97856.88;5101006;28;20651;-80
2023/10/23 08:18:35;;;;;;;7.53;5.23;;;;;;;8.15;100.00;97850.16;5100306;28;20208;-81
2023/10/23 08:21:08;;;;;;;6.27;4.27;;;;;;;8.18;100.00;97850.00;5100565;28;20235;-81
2023/10/23 08:23:35;;;;;;;6.93;4.87;;;;;;;8.32;100.00;97846.50;5099141;28;20600;-81
2023/10/23 08:26:01;;;;;;;6.03;4.73;;;;;;;8.38;100.00;97848.75;5099734;28;20213;-81
2023/10/23 08:28:28;;;;;;;6.77;4.87;;;;;;;8.47;100.00;97840.22;5098883;28;20582;-81
2023/10/23 08:30:54;;;;;;;6.70;5.10;;;;;;;8.53;100.00;97839.84;5099429;28;20246;-81
2023/10/23 08:33:20;;;;;;;9.10;4.70;;;;;;;8.61;100.00;97851.56;5098030;28;20217;-81
2023/10/23 08:35:48;;;;;;;7.43;5.03;;;;;;;8.65;100.00;97854.84;5097216;28;20207;-79
2023/10/23 08:38:15;;;;;;;8.13;5.00;;;;;;;8.68;100.00;97846.72;5093229;28;20213;-79
2023/10/23 08:40:42;;;;;;;8.77;5.27;;;;;;;8.69;100.00;97851.88;5092020;28;20715;-79
2023/10/23 08:43:09;;;;;;;7.67;5.07;;;;;;;8.74;100.00;97854.22;5088238;28;20679;-80
2023/10/23 08:45:36;;;;;;;7.40;5.93;;;;;;;8.80;100.00;97854.66;5094213;28;20459;-81
2023/10/23 08:48:02;;;;;;;6.77;5.03;;;;;;;8.84;100.00;97860.56;5079512;28;20217;-82
2023/10/23 08:50:29;;;;;;;5.67;4.77;;;;;;;8.84;100.00;97865.84;5084141;28;20212;-82
2023/10/23 08:53:00;;;;;;;7.53;4.83;;;;;;;8.88;100.00;97862.06;5075796;28;20228;-84
2023/10/23 08:55:29;;;;;;;5.50;4.77;;;;;;;8.98;100.00;97860.47;5077099;28;20207;-81
2023/10/23 08:57:58;;;;;;;6.90;4.90;;;;;;;9.01;100.00;97858.47;5096464;28;20238;-80
2023/10/23 09:00:25;;;;;;;6.27;4.80;;;;;;;9.07;100.00;97857.25;5097597;28;20231;-80
2023/10/23 09:02:52;;;;;;;7.23;5.10;;;;;;;9.15;100.00;97854.94;5097259;28;20759;-79
2023/10/23 09:05:19;;;;;;;5.50;4.37;;;;;;;9.20;100.00;97847.56;5097761;28;20229;-80
2023/10/23 09:07:46;;;;;;;5.23;4.63;;;;;;;9.22;100.00;97857.06;5099603;28;20214;-80
2023/10/23 09:10:14;;;;;;;9.43;4.83;;;;;;;9.32;100.00;97857.28;5097860;28;20212;-80
2023/10/23 09:12:41;;;;;;;4.57;4.10;;;;;;;9.42;100.00;97847.78;5095942;28;20356;-80
2023/10/23 09:15:15;;;;;;;5.50;4.43;;;;;;;9.50;100.00;97843.66;5097103;28;20216;-79
2023/10/23 09:17:42;;;;;;;5.90;4.47;;;;;;;9.56;100.00;97839.75;5096777;28;20214;-80
2023/10/23 09:20:23;;;;;;;6.80;4.20;;;;;;;9.61;100.00;97830.56;5096378;28;20233;-80
2023/10/23 09:22:50;;;;;;;7.27;4.33;;;;;;;9.69;100.00;97825.59;5096871;28;20240;-81
2023/10/23 09:25:19;;;;;;;6.10;4.70;;;;;;;9.74;100.00;97828.72;5097112;28;20203;-80
2023/10/23 09:27:45;;;;;;;7.50;4.60;;;;;;;9.80;100.00;97832.75;5096205;28;20211;-80
2023/10/23 09:30:13;;;;;;;6.20;4.20;;;;;;;9.79;100.00;97825.78;5091059;28;20521;-80
2023/10/23 09:32:40;;;;;;;6.47;4.20;;;;;;;9.80;100.00;97827.47;5086586;28;20239;-80
2023/10/23 09:35:07;;;;;;;5.90;4.57;;;;;;;9.82;100.00;97830.84;5094875;28;20207;-80
2023/10/23 09:37:35;;;;;;;5.37;4.30;;;;;;;9.80;100.00;97825.66;5095775;28;20213;-80
2023/10/23 09:40:08;;;;;;;5.43;4.00;;;;;;;9.85;100.00;97835.91;5092349;28;20246;-80
2023/10/23 09:42:36;;;;;;;7.37;4.20;;;;;;;9.87;100.00;97844.56;5074660;28;20228;-80
2023/10/23 09:45:04;;;;;;;6.50;3.80;;;;;;;9.92;100.00;97842.44;5073812;28;20818;-80
2023/10/23 09:47:31;;;;;;;5.43;4.10;;;;;;;9.96;100.00;97850.03;5075335;28;20211;-81
2023/10/23 09:49:58;;;;;;;6.30;4.50;;;;;;;10.00;100.00;97850.66;5075345;28;20219;-80
2023/10/23 09:52:26;;;;;;;4.83;3.83;;;;;;;10.06;100.00;97847.59;5075736;28;20238;-81
2023/10/23 09:54:59;;;;;;;4.67;3.90;;;;;;;10.10;100.00;97847.28;5081481;28;20562;-80
2023/10/23 09:57:33;;;;;;;5.77;3.97;;;;;;;10.16;100.00;97853.94;5081619;28;20220;-81
2023/10/23 10:00:05;;;;;;;5.77;4.00;;;;;;;10.17;100.00;97852.97;5083545;28;20224;-81
2023/10/23 10:02:35;;;;;;;5.33;4.57;;;;;;;10.18;100.00;97852.00;5081189;28;20337;-81
2023/10/23 10:05:04;;;;;;;9.10;4.50;;;;;;;10.17;100.00;97850.31;5080970;28;20236;-81
2023/10/23 10:07:38;;;;;;;7.47;4.17;;;;;;;10.22;100.00;97854.31;5080375;28;20228;-81
2023/10/23 10:10:05;;;;;;;5.27;4.30;;;;;;;10.24;100.00;97848.94;5077923;28;20211;-81
2023/10/23 10:12:34;;;;;;;5.70;3.70;;;;;;;10.23;100.00;97847.25;5076504;28;20284;-80
2023/10/23 10:15:03;;;;;;;7.20;3.70;;;;;;;10.23;100.00;97837.53;5075345;28;20243;-80
2023/10/23 10:17:31;;;;;;;5.70;4.37;;;;;;;10.27;100.00;97828.41;5076589;28;20218;-80
2023/10/23 10:20:00;;;;;;;4.93;3.80;;;;;;;10.36;100.00;97829.53;5078084;28;20240;-80
2023/10/23 10:22:31;;;;;;;5.70;4.20;;;;;;;10.38;100.00;97824.97;5074702;28;20613;-81
2023/10/23 10:24:58;;;;;;;5.57;3.80;;;;;;;10.39;100.00;97819.59;5074323;28;20217;-78
2023/10/23 10:27:25;;;;;;;5.60;3.87;;;;;;;10.47;100.00;97819.03;5074253;28;20215;-79
2023/10/23 10:29:52;;;;;;;5.93;3.97;;;;;;;10.49;100.00;97806.56;5074683;28;20215;-78
2023/10/23 10:32:24;;;;;;;5.77;3.50;;;;;;;10.50;100.00;97814.38;5072903;28;20477;-79
2023/10/23 10:34:52;;;;;;;5.23;3.27;;;;;;;10.53;100.00;97814.13;5074082;28;20209;-81
2023/10/23 10:37:23;;;;;;;7.27;3.40;;;;;;;10.63;100.00;97803.72;5074882;28;20214;-79
2023/10/23 10:40:13;;;;;;;3.93;2.87;;;;;;;10.69;100.00;97798.84;5075891;28;20242;-78
2023/10/23 10:42:39;;;;;;;3.93;3.10;;;;;;;10.73;100.00;97789.72;5053738;28;20682;-78
2023/10/23 10:45:17;;;;;;;4.03;3.10;;;;;;;10.78;100.00;97787.59;5075305;28;20210;-80
2023/10/23 10:47:48;;;;;;;4.07;2.70;;;;;;;10.82;100.00;97789.03;5074321;28;20207;-80
2023/10/23 10:50:31;;;;;;;5.77;2.90;;;;;;;10.85;100.00;97782.66;5074671;28;20211;-80
2023/10/23 10:53:02;;;;;;;5.43;2.63;;;;;;;10.89;100.00;97773.56;5073058;28;20222;-80
2023/10/23 10:55:28;;;;;;;5.57;2.97;;;;;;;10.93;100.00;97775.84;5074102;28;20206;-81
2023/10/23 10:57:55;;;;;;;4.33;2.60;;;;;;;10.96;100.00;97761.53;5074527;28;20677;-81
2023/10/23 11:00:23;;;;;;;3.53;2.60;;;;;;;10.99;100.00;97763.94;5072594;28;20340;-79
2023/10/23 11:02:51;;;;;;;3.27;2.53;;;;;;;11.06;100.00;97759.88;5072435;28;20235;-80
2023/10/23 11:05:17;;;;;;;5.07;2.70;;;;;;;11.04;100.00;97759.13;5073700;28;20211;-79
2023/10/23 11:07:47;;;;;;;3.03;2.40;;;;;;;11.08;100.00;97755.31;5073226;28;20211;-80
2023/10/23 11:10:14;;;;;;;4.00;2.80;;;;;;;11.13;100.00;97756.63;5073450;28;20221;-81
2023/10/23 11:12:41;;;;;;;4.93;2.60;;;;;;;11.14;100.00;97746.91;5072549;28;20230;-82
2023/10/23 11:15:08;;;;;;;3.30;2.47;;;;;;;11.21;100.00;97742.81;5072494;28;20215;-81
2023/10/23 11:17:36;;;;;;;4.07;2.70;;;;;;;11.26;100.00;97738.03;5073103;28;20267;-79
2023/10/23 11:20:08;;;;;;;4.37;2.40;;;;;;;11.31;100.00;97730.56;5072889;28;20608;-79
2023/10/23 11:22:35;;;;;;;2.80;2.50;;;;;;;11.32;100.00;97726.97;5072787;28;20234;-79
2023/10/23 11:25:04;;;;;;;4.67;2.60;;;;;;;11.37;100.00;97709.75;5072687;28;20214;-81
2023/10/23 11:27:30;;;;;;;4.23;3.20;;;;;;;11.42;100.00;97696.16;5072708;28;20211;-81
2023/10/23 11:29:57;;;;;;;5.00;2.80;;;;;;;11.42;100.00;97682.91;5072962;28;20230;-81
2023/10/23 11:32:23;;;;;;;7.17;4.17;;;;;;;11.43;100.00;97671.41;5072265;28;20237;-82